Time;durP1;ratioP1;P1;durP2;ratioP2;P2;SDS_P1;SDS_P2;PMS_P1;PMS_P2;Temp;Humidity;BMP_temperature;BMP_pressure;BME280_temperature;BME280_humidity;BME280_pressure;Samples;Min_cycle;Max_cycle;Signal;HPM_P1;HPM_P2
2023/03/17 00:00:21;;;;;;;3.92;2.65;;;;;;;;;;4966893;28;20022;-82
2023/03/17 00:02:48;;;;;;;4.03;2.58;;;;;;;;;;4981859;28;20041;-83
2023/03/17 00:05:16;;;;;;;3.63;2.70;;;;;;;;;;4981170;28;20106;-82
2023/03/17 00:07:43;;;;;;;3.92;2.55;;;;;;;;;;4970245;28;20039;-83
2023/03/17 00:10:24;;;;;;;6.72;2.67;;;;;;;;;;4959603;28;20412;-82
2023/03/17 00:12:55;;;;;;;5.18;3.17;;;;;;;;;;4977175;28;20070;-83
2023/03/17 00:15:25;;;;;;;7.60;2.70;;;;;;;;;;4961545;28;20030;-82
2023/03/17 00:17:54;;;;;;;4.50;3.05;;;;;;;;;;4978742;28;20042;-83
2023/03/17 00:20:28;;;;;;;4.85;2.45;;;;;;;;;;4976786;28;20041;-80
2023/03/17 00:23:00;;;;;;;3.80;2.63;;;;;;;;;;4981827;28;20023;-82
2023/03/17 00:25:28;;;;;;;4.53;2.75;;;;;;;;;;4963448;28;20042;-82
2023/03/17 00:27:55;;;;;;;5.38;3.17;;;;;;;;;;4966244;28;20281;-82
2023/03/17 00:30:21;;;;;;;7.22;3.53;;;;;;;;;;4963742;28;20085;-82
2023/03/17 00:32:50;;;;;;;4.15;2.67;;;;;;;;;;4966036;28;20140;-82
2023/03/17 00:35:22;;;;;;;3.70;2.60;;;;;;;;;;4950695;23;20102;-83
2023/03/17 00:37:48;;;;;;;;;;;;;;;;;;4934733;29;20091;-81
2023/03/17 00:40:23;;;;;;;2.92;2.22;;;;;;;;;;4936208;29;19919;-82
2023/03/17 00:42:50;;;;;;;6.15;3.25;;;;;;;;;;4919643;29;20042;-83
2023/03/17 00:45:18;;;;;;;8.05;3.17;;;;;;;;;;4944296;28;20475;-82
2023/03/17 00:47:44;;;;;;;4.85;2.65;;;;;;;;;;4957038;28;20054;-83
2023/03/17 00:50:16;;;;;;;4.82;2.65;;;;;;;;;;4954140;28;20034;-83
2023/03/17 00:52:43;;;;;;;6.57;2.80;;;;;;;;;;4938224;28;20019;-82
2023/03/17 00:55:09;;;;;;;5.82;3.03;;;;;;;;;;4936535;29;20237;-83
2023/03/17 00:57:37;;;;;;;5.53;3.03;;;;;;;;;;4958153;28;20117;-83
2023/03/17 01:00:04;;;;;;;8.70;3.55;;;;;;;;;;4943259;28;20027;-83
2023/03/17 01:02:29;;;;;;;4.38;3.03;;;;;;;;;;4940104;28;20023;-83
2023/03/17 01:04:56;;;;;;;3.92;2.95;;;;;;;;;;4954037;28;20022;-83
2023/03/17 01:07:23;;;;;;;5.70;3.50;;;;;;;;;;4943647;29;20294;-82
2023/03/17 01:09:48;;;;;;;6.50;3.17;;;;;;;;;;4960864;28;20037;-82
2023/03/17 01:12:14;;;;;;;8.27;3.15;;;;;;;;;;4940293;29;20429;-83
2023/03/17 01:14:39;;;;;;;5.60;3.25;;;;;;;;;;4941850;28;20035;-82
2023/03/17 01:17:17;;;;;;;5.43;3.30;;;;;;;;;;4956680;28;20481;-82
2023/03/17 01:19:43;;;;;;;4.20;3.08;;;;;;;;;;4958250;28;20031;-83
2023/03/17 01:22:09;;;;;;;4.30;3.00;;;;;;;;;;4957480;28;20521;-83
2023/03/17 01:24:35;;;;;;;4.20;2.72;;;;;;;;;;4945786;29;20031;-82
2023/03/17 01:27:01;;;;;;;5.55;3.05;;;;;;;;;;4954281;28;20027;-83
2023/03/17 01:29:27;;;;;;;6.57;3.22;;;;;;;;;;4952778;28;20437;-80
2023/03/17 01:31:52;;;;;;;6.97;3.42;;;;;;;;;;4969019;28;20075;-83
2023/03/17 01:34:17;;;;;;;4.15;2.80;;;;;;;;;;4960011;28;20204;-83
2023/03/17 01:36:43;;;;;;;4.25;2.72;;;;;;;;;;4933790;29;20066;-82
2023/03/17 01:39:08;;;;;;;8.02;3.25;;;;;;;;;;4965592;28;20077;-82
2023/03/17 01:41:36;;;;;;;6.30;3.05;;;;;;;;;;4961026;28;20118;-82
2023/03/17 01:44:01;;;;;;;6.72;3.50;;;;;;;;;;4939798;29;20077;-83
2023/03/17 01:46:34;;;;;;;4.13;2.92;;;;;;;;;;4958640;28;20102;-83
2023/03/17 01:49:12;;;;;;;4.82;2.88;;;;;;;;;;4962304;28;20027;-83
2023/03/17 01:51:50;;;;;;;6.25;3.60;;;;;;;;;;4958152;28;20150;-82
2023/03/17 01:54:42;;;;;;;5.15;3.08;;;;;;;;;;4942345;28;20110;-83
2023/03/17 01:57:17;;;;;;;5.65;2.88;;;;;;;;;;4961615;28;20454;-83
2023/03/17 01:59:47;;;;;;;6.32;3.67;;;;;;;;;;4959046;28;20082;-82
2023/03/17 02:02:19;;;;;;;5.70;3.28;;;;;;;;;;4960226;29;20046;-82
2023/03/17 02:04:44;;;;;;;5.95;2.97;;;;;;;;;;4945198;29;20046;-82
2023/03/17 02:07:11;;;;;;;4.03;3.20;;;;;;;;;;4944980;29;20035;-82
2023/03/17 02:09:36;;;;;;;9.57;3.15;;;;;;;;;;4947717;29;20061;-83
2023/03/17 02:12:02;;;;;;;6.55;3.33;;;;;;;;;;4945036;29;20023;-82
2023/03/17 02:14:28;;;;;;;3.80;3.17;;;;;;;;;;4944993;28;20096;-82
2023/03/17 02:16:54;;;;;;;8.23;3.80;;;;;;;;;;4943967;29;20027;-82
2023/03/17 02:19:19;;;;;;;8.10;3.20;;;;;;;;;;4960320;28;20134;-82
2023/03/17 02:21:48;;;;;;;5.35;3.13;;;;;;;;;;4942827;29;20054;-82
2023/03/17 02:24:22;;;;;;;5.15;3.22;;;;;;;;;;4964388;28;20027;-83
2023/03/17 02:26:50;;;;;;;6.57;3.38;;;;;;;;;;4962212;29;20147;-82
2023/03/17 02:29:17;;;;;;;4.25;2.95;;;;;;;;;;4945272;29;20038;-83
2023/03/17 02:31:44;;;;;;;4.80;3.00;;;;;;;;;;4961738;29;20031;-82
2023/03/17 02:34:09;;;;;;;6.57;3.05;;;;;;;;;;4963805;28;20090;-83
2023/03/17 02:36:36;;;;;;;7.57;3.83;;;;;;;;;;4945660;29;20031;-83
2023/03/17 02:39:01;;;;;;;5.40;3.47;;;;;;;;;;4942742;29;20031;-84
2023/03/17 02:41:27;;;;;;;8.73;3.55;;;;;;;;;;4943403;29;20027;-83
2023/03/17 02:43:53;;;;;;;6.03;3.65;;;;;;;;;;4961725;28;20106;-83
2023/03/17 02:46:19;;;;;;;5.93;3.75;;;;;;;;;;4960520;28;20027;-83
2023/03/17 02:48:45;;;;;;;6.60;3.47;;;;;;;;;;4943523;29;20035;-82
2023/03/17 02:51:11;;;;;;;10.90;3.28;;;;;;;;;;4963723;28;20019;-80
2023/03/17 02:53:37;;;;;;;5.03;3.33;;;;;;;;;;4978959;28;20015;-81
2023/03/17 02:56:02;;;;;;;9.30;3.45;;;;;;;;;;4960186;28;20033;-82
2023/03/17 02:58:28;;;;;;;5.85;3.33;;;;;;;;;;4958446;29;20023;-81
2023/03/17 03:00:53;;;;;;;8.27;3.65;;;;;;;;;;4957580;28;20027;-82
2023/03/17 03:03:19;;;;;;;5.03;3.08;;;;;;;;;;4958263;29;20062;-82
2023/03/17 03:05:44;;;;;;;7.97;3.83;;;;;;;;;;4956809;28;20639;-82
2023/03/17 03:08:10;;;;;;;5.60;3.28;;;;;;;;;;4957434;28;20048;-82
2023/03/17 03:10:35;;;;;;;7.10;3.55;;;;;;;;;;4939818;29;20102;-81
2023/03/17 03:13:01;;;;;;;8.05;3.17;;;;;;;;;;4940643;29;20087;-82
2023/03/17 03:15:26;;;;;;;9.07;3.08;;;;;;;;;;4959583;28;20027;-82
2023/03/17 03:17:51;;;;;;;4.95;3.25;;;;;;;;;;4959700;29;20023;-83
2023/03/17 03:20:17;;;;;;;6.18;3.40;;;;;;;;;;4942014;29;20090;-83
2023/03/17 03:22:42;;;;;;;5.55;3.45;;;;;;;;;;4959874;28;20034;-83
2023/03/17 03:25:08;;;;;;;7.20;3.17;;;;;;;;;;4942714;29;20027;-82
2023/03/17 03:27:33;;;;;;;5.93;3.63;;;;;;;;;;4957729;28;20035;-82
2023/03/17 03:29:59;;;;;;;4.57;3.08;;;;;;;;;;4959585;29;20034;-83
2023/03/17 03:32:25;;;;;;;5.68;3.00;;;;;;;;;;4959861;29;20478;-82
2023/03/17 03:34:50;;;;;;;5.32;3.25;;;;;;;;;;4957588;28;20039;-82
2023/03/17 03:37:16;;;;;;;5.72;2.80;;;;;;;;;;4957053;29;20049;-83
2023/03/17 03:39:41;;;;;;;4.90;3.20;;;;;;;;;;4942095;29;20457;-82
2023/03/17 03:42:07;;;;;;;4.13;2.72;;;;;;;;;;4946897;29;20031;-82
2023/03/17 03:44:32;;;;;;;10.23;3.65;;;;;;;;;;4951411;28;20398;-82
2023/03/17 03:46:57;;;;;;;6.15;2.85;;;;;;;;;;4958399;28;20086;-83
2023/03/17 03:49:23;;;;;;;6.20;2.67;;;;;;;;;;4946020;29;20035;-83
2023/03/17 03:51:48;;;;;;;4.82;2.85;;;;;;;;;;4933426;29;20034;-83
2023/03/17 03:54:14;;;;;;;5.13;3.42;;;;;;;;;;4949537;28;20027;-83
2023/03/17 03:56:39;;;;;;;8.13;3.40;;;;;;;;;;4959234;28;20027;-83
2023/03/17 03:59:05;;;;;;;5.30;3.60;;;;;;;;;;4950425;29;20023;-82
2023/03/17 04:01:30;;;;;;;6.70;3.55;;;;;;;;;;4957575;28;20031;-83
2023/03/17 04:03:55;;;;;;;6.05;3.13;;;;;;;;;;4959613;29;20488;-81
2023/03/17 04:06:21;;;;;;;5.90;3.65;;;;;;;;;;4942655;29;20031;-82
2023/03/17 04:08:46;;;;;;;10.38;3.90;;;;;;;;;;4942269;29;20393;-83
2023/03/17 04:11:11;;;;;;;4.80;3.58;;;;;;;;;;4940718;28;20474;-82
2023/03/17 04:13:37;;;;;;;5.80;3.30;;;;;;;;;;4959105;29;20015;-82
2023/03/17 04:16:03;;;;;;;5.40;3.33;;;;;;;;;;4942428;29;20393;-82
2023/03/17 04:18:30;;;;;;;5.88;3.58;;;;;;;;;;4941600;29;20026;-82
2023/03/17 04:20:55;;;;;;;7.28;3.85;;;;;;;;;;4957445;28;20050;-82
2023/03/17 04:23:21;;;;;;;10.60;3.72;;;;;;;;;;4949126;29;20023;-82
2023/03/17 04:25:49;;;;;;;6.75;4.13;;;;;;;;;;4958632;28;20440;-82
2023/03/17 04:28:15;;;;;;;4.88;3.13;;;;;;;;;;4944625;28;20023;-83
2023/03/17 04:30:40;;;;;;;10.80;3.83;;;;;;;;;;4950106;28;20035;-83
2023/03/17 04:33:06;;;;;;;10.43;4.22;;;;;;;;;;4942753;29;20027;-81
2023/03/17 04:35:31;;;;;;;7.75;3.63;;;;;;;;;;4942380;29;20042;-82
2023/03/17 04:37:56;;;;;;;6.78;3.60;;;;;;;;;;4957805;28;20040;-83
2023/03/17 04:40:22;;;;;;;5.68;3.15;;;;;;;;;;4959064;28;20054;-82
2023/03/17 04:42:47;;;;;;;5.93;3.65;;;;;;;;;;4941860;28;20666;-82
2023/03/17 04:45:16;;;;;;;13.30;3.53;;;;;;;;;;4944609;29;20027;-82
2023/03/17 04:47:44;;;;;;;8.02;3.33;;;;;;;;;;4945449;29;20034;-82
2023/03/17 04:50:10;;;;;;;8.07;4.03;;;;;;;;;;4942733;29;20023;-82
2023/03/17 04:52:36;;;;;;;8.20;4.07;;;;;;;;;;4960351;29;20019;-82
2023/03/17 04:55:02;;;;;;;6.38;3.88;;;;;;;;;;4943191;29;20086;-82
2023/03/17 04:57:28;;;;;;;5.13;3.45;;;;;;;;;;4955207;28;20027;-81
2023/03/17 04:59:53;;;;;;;8.63;3.20;;;;;;;;;;4968263;29;20087;-81
2023/03/17 05:02:18;;;;;;;4.05;3.05;;;;;;;;;;4970855;29;20091;-81
2023/03/17 05:04:45;;;;;;;8.13;3.63;;;;;;;;;;4955899;29;20098;-81
2023/03/17 05:07:11;;;;;;;7.72;3.75;;;;;;;;;;4947710;29;20090;-82
2023/03/17 05:09:37;;;;;;;6.25;4.40;;;;;;;;;;4955139;29;20024;-81
2023/03/17 05:12:03;;;;;;;7.80;3.80;;;;;;;;;;4953434;29;20019;-81
2023/03/17 05:14:28;;;;;;;5.70;3.60;;;;;;;;;;4959733;28;20031;-81
2023/03/17 05:16:53;;;;;;;8.27;3.42;;;;;;;;;;4954725;29;20031;-81
2023/03/17 05:19:19;;;;;;;6.10;3.17;;;;;;;;;;4946187;29;20042;-81
2023/03/17 05:21:45;;;;;;;5.47;3.45;;;;;;;;;;4954895;29;20121;-82
2023/03/17 05:24:11;;;;;;;8.20;3.20;;;;;;;;;;4956083;28;20099;-82
2023/03/17 05:26:37;;;;;;;5.00;2.92;;;;;;;;;;4950368;29;20353;-82
2023/03/17 05:29:02;;;;;;;5.22;3.60;;;;;;;;;;4967816;28;20496;-82
2023/03/17 05:31:28;;;;;;;4.55;3.25;;;;;;;;;;4957286;29;20031;-83
2023/03/17 05:33:54;;;;;;;6.70;3.63;;;;;;;;;;4969043;28;20027;-82
2023/03/17 05:36:20;;;;;;;5.50;3.90;;;;;;;;;;4953309;29;20061;-82
2023/03/17 05:38:45;;;;;;;6.80;3.60;;;;;;;;;;4970810;29;20046;-82
2023/03/17 05:41:11;;;;;;;7.72;3.35;;;;;;;;;;4953828;29;20023;-82
2023/03/17 05:43:36;;;;;;;8.07;4.05;;;;;;;;;;4955036;29;20039;-82
2023/03/17 05:46:03;;;;;;;7.38;3.75;;;;;;;;;;4963243;28;20019;-82
2023/03/17 05:48:28;;;;;;;8.35;3.83;;;;;;;;;;4963365;28;20023;-82
2023/03/17 05:50:54;;;;;;;5.22;3.80;;;;;;;;;;4944588;29;20062;-83
2023/03/17 05:53:19;;;;;;;7.38;3.53;;;;;;;;;;4952202;29;20059;-82
2023/03/17 05:55:45;;;;;;;6.10;3.53;;;;;;;;;;4954006;28;20035;-83
2023/03/17 05:58:11;;;;;;;10.95;4.13;;;;;;;;;;4942782;29;20023;-82
2023/03/17 06:00:37;;;;;;;8.75;3.78;;;;;;;;;;4946242;29;20038;-83
2023/03/17 06:03:03;;;;;;;7.32;3.72;;;;;;;;;;4958591;29;20509;-82
2023/03/17 06:05:29;;;;;;;9.40;4.00;;;;;;;;;;4956533;29;20114;-82
2023/03/17 06:07:55;;;;;;;5.38;3.90;;;;;;;;;;4945684;29;20521;-82
2023/03/17 06:10:20;;;;;;;10.23;4.43;;;;;;;;;;4938836;29;20126;-83
2023/03/17 06:12:46;;;;;;;8.27;4.15;;;;;;;;;;4940877;29;20102;-83
2023/03/17 06:15:11;;;;;;;12.27;6.10;;;;;;;;;;4952759;29;20019;-82
2023/03/17 06:17:37;;;;;;;10.20;5.30;;;;;;;;;;4961405;29;20031;-83
2023/03/17 06:20:04;;;;;;;10.70;6.47;;;;;;;;;;4960402;29;20023;-82
2023/03/17 06:22:30;;;;;;;11.15;5.35;;;;;;;;;;4961097;29;20106;-82
2023/03/17 06:24:55;;;;;;;10.02;4.30;;;;;;;;;;4943699;29;20121;-82
2023/03/17 06:27:21;;;;;;;10.38;3.33;;;;;;;;;;4946423;29;20074;-85
2023/03/17 06:29:46;;;;;;;8.05;4.10;;;;;;;;;;4947530;29;20027;-81
2023/03/17 06:32:12;;;;;;;4.72;3.55;;;;;;;;;;4951514;29;20019;-85
2023/03/17 06:34:37;;;;;;;8.70;4.63;;;;;;;;;;4960977;29;20183;-83
2023/03/17 06:37:03;;;;;;;9.38;4.43;;;;;;;;;;4960124;28;20031;-82
2023/03/17 06:39:29;;;;;;;8.13;4.13;;;;;;;;;;4960489;28;20039;-81
2023/03/17 06:41:54;;;;;;;19.85;5.10;;;;;;;;;;4943322;29;20067;-82
2023/03/17 06:44:22;;;;;;;8.90;3.97;;;;;;;;;;4943114;28;20700;-82
2023/03/17 06:46:48;;;;;;;19.48;4.28;;;;;;;;;;4943156;29;20512;-82
2023/03/17 06:49:13;;;;;;;7.82;4.38;;;;;;;;;;4942092;29;20027;-83
2023/03/17 06:51:39;;;;;;;10.15;4.20;;;;;;;;;;4948344;28;20023;-83
2023/03/17 06:54:05;;;;;;;7.95;3.92;;;;;;;;;;4950487;29;20035;-82
2023/03/17 06:56:31;;;;;;;8.32;4.32;;;;;;;;;;4953835;28;20047;-82
2023/03/17 06:58:57;;;;;;;9.52;5.18;;;;;;;;;;4947668;28;20038;-81
2023/03/17 07:01:23;;;;;;;10.70;4.53;;;;;;;;;;4958159;28;20027;-84
2023/03/17 07:03:49;;;;;;;10.18;4.22;;;;;;;;;;4955987;28;20062;-83
2023/03/17 07:06:15;;;;;;;11.02;4.70;;;;;;;;;;4951062;28;20036;-84
2023/03/17 07:08:40;;;;;;;11.73;4.80;;;;;;;;;;4954663;29;20055;-83
2023/03/17 07:11:06;;;;;;;10.38;5.47;;;;;;;;;;4948558;29;20059;-84
2023/03/17 07:13:34;;;;;;;18.58;5.13;;;;;;;;;;4960199;29;20035;-86
2023/03/17 07:16:01;;;;;;;10.82;4.75;;;;;;;;;;4963274;28;20183;-84
2023/03/17 07:18:30;;;;;;;11.05;4.63;;;;;;;;;;4941304;28;20040;-86
2023/03/17 07:21:00;;;;;;;9.75;4.97;;;;;;;;;;4939753;29;20267;-86
2023/03/17 07:23:27;;;;;;;8.57;4.43;;;;;;;;;;4945427;29;20039;-86
2023/03/17 07:25:52;;;;;;;12.00;5.05;;;;;;;;;;4944425;29;20393;-85
2023/03/17 07:28:18;;;;;;;12.90;5.05;;;;;;;;;;4946070;29;20027;-85
2023/03/17 07:30:45;;;;;;;8.10;4.40;;;;;;;;;;4939899;29;20031;-84
2023/03/17 07:33:12;;;;;;;10.57;5.50;;;;;;;;;;4961579;28;20019;-85
2023/03/17 07:35:37;;;;;;;9.10;4.00;;;;;;;;;;4951007;28;20486;-85
2023/03/17 07:38:03;;;;;;;6.32;3.78;;;;;;;;;;4950944;28;20043;-85
2023/03/17 07:40:29;;;;;;;5.95;3.70;;;;;;;;;;4969956;28;20011;-84
2023/03/17 07:42:55;;;;;;;7.40;3.95;;;;;;;;;;4969393;28;20019;-85
2023/03/17 07:45:20;;;;;;;6.50;3.53;;;;;;;;;;4959437;28;20107;-86
2023/03/17 07:47:46;;;;;;;7.90;3.45;;;;;;;;;;4975008;28;20011;-85
2023/03/17 07:50:11;;;;;;;8.63;4.03;;;;;;;;;;4963056;28;20043;-85
2023/03/17 07:52:37;;;;;;;6.70;4.07;;;;;;;;;;4969666;28;20034;-84
2023/03/17 07:55:04;;;;;;;6.72;4.07;;;;;;;;;;4945878;29;20022;-84
2023/03/17 07:57:29;;;;;;;10.45;4.22;;;;;;;;;;4948831;29;20027;-85
2023/03/17 07:59:54;;;;;;;6.85;4.18;;;;;;;;;;4943258;29;20030;-84
2023/03/17 08:02:20;;;;;;;7.03;4.20;;;;;;;;;;4960850;28;20024;-85
2023/03/17 08:04:46;;;;;;;7.25;4.38;;;;;;;;;;4961427;28;20445;-84
2023/03/17 08:07:12;;;;;;;10.20;4.03;;;;;;;;;;4961050;29;20037;-85
2023/03/17 08:09:38;;;;;;;7.85;4.45;;;;;;;;;;4960251;29;20031;-85
2023/03/17 08:12:04;;;;;;;10.18;4.95;;;;;;;;;;4959235;28;20024;-85
2023/03/17 08:14:30;;;;;;;6.68;3.30;;;;;;;;;;4947196;28;20027;-85
2023/03/17 08:16:55;;;;;;;7.95;4.30;;;;;;;;;;4943794;29;20116;-85
2023/03/17 08:19:23;;;;;;;6.75;3.95;;;;;;;;;;4944484;29;20030;-85
2023/03/17 08:21:49;;;;;;;5.65;3.42;;;;;;;;;;4945992;29;20031;-85
2023/03/17 08:24:14;;;;;;;11.85;3.90;;;;;;;;;;4962173;29;20038;-84
2023/03/17 08:26:40;;;;;;;7.65;3.67;;;;;;;;;;4961932;29;20055;-85
2023/03/17 08:29:06;;;;;;;5.35;3.75;;;;;;;;;;4949224;29;20027;-85
2023/03/17 08:31:32;;;;;;;6.13;3.63;;;;;;;;;;4963434;29;20023;-85
2023/03/17 08:33:58;;;;;;;9.63;4.30;;;;;;;;;;4947247;29;20034;-86
2023/03/17 08:36:24;;;;;;;9.90;4.03;;;;;;;;;;4949458;28;20031;-87
2023/03/17 08:38:50;;;;;;;4.82;3.20;;;;;;;;;;4970516;28;20067;-86
2023/03/17 08:41:23;;;;;;;5.47;3.40;;;;;;;;;;4957749;29;20031;-86
2023/03/17 08:43:49;;;;;;;5.00;3.30;;;;;;;;;;4960090;29;20034;-85
2023/03/17 08:46:21;;;;;;;8.05;4.30;;;;;;;;;;4954705;29;20038;-86
2023/03/17 08:48:49;;;;;;;5.10;3.60;;;;;;;;;;4953586;29;20134;-85
2023/03/17 08:51:16;;;;;;;5.95;3.45;;;;;;;;;;4956180;29;20034;-85
2023/03/17 08:53:41;;;;;;;8.27;4.10;;;;;;;;;;4955502;29;20055;-84
2023/03/17 08:56:07;;;;;;;5.20;3.33;;;;;;;;;;4956299;28;20091;-84
2023/03/17 08:58:35;;;;;;;10.85;3.53;;;;;;;;;;4976262;28;20068;-84
2023/03/17 09:01:02;;;;;;;6.45;3.25;;;;;;;;;;4975545;28;20039;-84
2023/03/17 09:03:27;;;;;;;7.22;3.30;;;;;;;;;;4960290;28;20087;-84
2023/03/17 09:05:53;;;;;;;8.10;3.28;;;;;;;;;;4960015;28;20020;-84
2023/03/17 09:08:20;;;;;;;7.53;2.58;;;;;;;;;;4957391;28;20421;-85
2023/03/17 09:10:46;;;;;;;9.07;3.08;;;;;;;;;;4972430;28;20030;-84
2023/03/17 09:13:12;;;;;;;6.65;2.47;;;;;;;;;;4978975;28;20035;-85
2023/03/17 09:15:37;;;;;;;5.00;2.85;;;;;;;;;;4959350;29;20027;-84
2023/03/17 09:18:04;;;;;;;4.57;2.75;;;;;;;;;;4981456;28;20032;-84
2023/03/17 09:20:30;;;;;;;7.38;2.50;;;;;;;;;;4980688;28;20020;-84
2023/03/17 09:22:56;;;;;;;6.50;2.65;;;;;;;;;;4963022;28;20038;-83
2023/03/17 09:25:22;;;;;;;8.38;2.67;;;;;;;;;;4976034;28;20050;-84
2023/03/17 09:27:48;;;;;;;10.68;2.97;;;;;;;;;;4969939;28;20039;-84
2023/03/17 09:30:15;;;;;;;8.73;2.58;;;;;;;;;;4962818;28;20045;-83
2023/03/17 09:32:41;;;;;;;5.78;2.17;;;;;;;;;;4947435;29;20390;-84
2023/03/17 09:35:07;;;;;;;4.40;2.13;;;;;;;;;;4961558;28;20485;-84
2023/03/17 09:37:33;;;;;;;3.83;2.30;;;;;;;;;;4962580;29;20031;-84
2023/03/17 09:39:59;;;;;;;2.60;2.00;;;;;;;;;;4962479;28;20027;-84
2023/03/17 09:42:42;;;;;;;7.45;2.20;;;;;;;;;;4945328;29;20027;-84
2023/03/17 09:45:33;;;;;;;10.80;2.13;;;;;;;;;;4964515;28;20030;-84
2023/03/17 09:48:07;;;;;;;3.78;2.35;;;;;;;;;;4942701;29;20027;-83
2023/03/17 09:50:54;;;;;;;4.72;2.40;;;;;;;;;;4962392;29;20031;-84
2023/03/17 09:53:34;;;;;;;5.60;2.20;;;;;;;;;;4940330;29;20066;-83
2023/03/17 09:56:22;;;;;;;4.30;2.75;;;;;;;;;;4943884;28;20501;-83
2023/03/17 09:59:02;;;;;;;4.75;2.60;;;;;;;;;;4950921;28;20046;-83
2023/03/17 10:01:28;;;;;;;3.60;2.17;;;;;;;;;;4953388;28;20039;-83
2023/03/17 10:03:54;;;;;;;6.70;2.05;;;;;;;;;;4944332;29;20035;-84
2023/03/17 10:06:45;;;;;;;4.22;2.13;;;;;;;;;;4962005;28;20134;-84
2023/03/17 10:09:32;;;;;;;5.82;2.10;;;;;;;;;;4961484;29;20031;-84
2023/03/17 10:11:58;;;;;;;3.88;2.28;;;;;;;;;;4961623;29;20027;-83
2023/03/17 10:14:39;;;;;;;5.03;2.45;;;;;;;;;;4936417;28;20182;-83
2023/03/17 10:17:18;;;;;;;8.50;2.17;;;;;;;;;;4935722;29;20035;-83
2023/03/17 10:20:05;;;;;;;5.43;2.13;;;;;;;;;;4935384;28;20038;-83
2023/03/17 10:22:41;;;;;;;4.18;2.20;;;;;;;;;;4937025;29;20918;-82
2023/03/17 10:25:31;;;;;;;2.15;1.90;;;;;;;;;;4934971;29;20852;-83
2023/03/17 10:28:12;;;;;;;7.25;1.98;;;;;;;;;;4940708;28;20533;-83
2023/03/17 10:30:38;;;;;;;6.05;2.00;;;;;;;;;;4935550;29;20031;-84
2023/03/17 10:33:07;;;;;;;5.05;2.15;;;;;;;;;;4935342;29;20031;-83
2023/03/17 10:35:35;;;;;;;5.75;2.03;;;;;;;;;;4952485;28;20035;-83
2023/03/17 10:38:13;;;;;;;2.47;2.03;;;;;;;;;;4939944;29;20035;-82
2023/03/17 10:40:39;;;;;;;2.97;1.67;;;;;;;;;;4960349;28;20035;-84
2023/03/17 10:43:10;;;;;;;4.53;1.75;;;;;;;;;;4955812;29;20031;-84
2023/03/17 10:45:45;;;;;;;2.67;1.88;;;;;;;;;;4947517;28;20362;-82
2023/03/17 10:48:19;;;;;;;2.90;1.63;;;;;;;;;;4948228;29;20494;-84
2023/03/17 10:50:45;;;;;;;5.45;1.92;;;;;;;;;;4947226;28;20031;-83
2023/03/17 10:53:29;;;;;;;3.92;2.13;;;;;;;;;;4929146;29;20035;-84
2023/03/17 10:56:05;;;;;;;2.53;2.05;;;;;;;;;;4951568;28;20023;-81
2023/03/17 10:58:43;;;;;;;4.22;2.10;;;;;;;;;;4956349;29;20031;-83
2023/03/17 11:01:39;;;;;;;3.55;1.65;;;;;;;;;;4929736;29;20035;-82
2023/03/17 11:04:25;;;;;;;2.10;1.35;;;;;;;;;;4946279;29;20047;-83
2023/03/17 11:06:51;;;;;;;3.92;1.60;;;;;;;;;;4929952;29;20042;-85
2023/03/17 11:09:18;;;;;;;1.83;1.60;;;;;;;;;;4946647;28;20058;-83
2023/03/17 11:11:57;;;;;;;2.00;1.50;;;;;;;;;;4926297;29;20024;-83
2023/03/17 11:14:27;;;;;;;3.20;1.55;;;;;;;;;;4929960;28;20766;-82
2023/03/17 11:16:59;;;;;;;1.85;1.10;;;;;;;;;;4949685;28;20045;-84
2023/03/17 11:19:42;;;;;;;4.78;1.20;;;;;;;;;;4934871;29;20455;-83
2023/03/17 11:22:27;;;;;;;5.22;1.48;;;;;;;;;;4935328;29;20039;-83
2023/03/17 11:24:54;;;;;;;2.70;1.20;;;;;;;;;;4933960;29;20035;-84
2023/03/17 11:27:29;;;;;;;2.72;0.98;;;;;;;;;;4933386;29;20497;-84
2023/03/17 11:30:28;;;;;;;3.33;1.58;;;;;;;;;;4944900;28;20079;-84
2023/03/17 11:33:35;;;;;;;2.78;1.45;;;;;;;;;;4896596;29;20035;-84
2023/03/17 11:36:26;;;;;;;3.85;1.65;;;;;;;;;;4948457;29;20023;-84
2023/03/17 11:39:11;;;;;;;1.48;1.30;;;;;;;;;;4951429;29;20035;-83
2023/03/17 11:41:46;;;;;;;1.98;1.27;;;;;;;;;;4946345;28;20063;-83
2023/03/17 11:44:49;;;;;;;7.03;1.58;;;;;;;;;;4946388;29;20114;-83
2023/03/17 11:47:25;;;;;;;2.67;1.50;;;;;;;;;;4931946;29;20074;-83
2023/03/17 11:50:17;;;;;;;1.20;1.05;;;;;;;;;;4948978;29;20031;-83
2023/03/17 11:52:55;;;;;;;2.25;1.20;;;;;;;;;;4937615;29;20044;-84
2023/03/17 11:55:30;;;;;;;1.90;1.20;;;;;;;;;;4933645;29;20045;-81
2023/03/17 11:58:04;;;;;;;4.25;1.23;;;;;;;;;;4930976;29;20035;-83
2023/03/17 12:00:31;;;;;;;3.33;1.30;;;;;;;;;;4938128;29;20031;-83
2023/03/17 12:03:11;;;;;;;5.60;1.27;;;;;;;;;;4934345;29;20027;-84
2023/03/17 12:05:37;;;;;;;1.25;1.10;;;;;;;;;;4947999;28;20042;-83
2023/03/17 12:08:16;;;;;;;1.67;1.40;;;;;;;;;;4947087;28;20035;-82
2023/03/17 12:10:46;;;;;;;2.53;1.30;;;;;;;;;;4928583;29;20046;-83
2023/03/17 12:13:17;;;;;;;1.65;1.30;;;;;;;;;;4947365;28;20030;-83
2023/03/17 12:15:49;;;;;;;1.42;1.00;;;;;;;;;;4945237;28;20126;-84
2023/03/17 12:18:20;;;;;;;1.30;1.20;;;;;;;;;;4940688;28;20842;-84
2023/03/17 12:20:53;;;;;;;1.23;1.10;;;;;;;;;;4927404;29;20027;-83
2023/03/17 12:23:38;;;;;;;1.25;1.00;;;;;;;;;;4923919;29;20031;-81
2023/03/17 12:26:13;;;;;;;1.88;1.45;;;;;;;;;;4924509;29;20105;-81
2023/03/17 12:29:02;;;;;;;4.68;1.40;;;;;;;;;;4949358;28;20043;-82
2023/03/17 12:31:34;;;;;;;1.05;0.95;;;;;;;;;;4942218;28;20113;-84
2023/03/17 12:34:14;;;;;;;0.98;0.90;;;;;;;;;;4930112;29;20122;-84
2023/03/17 12:36:43;;;;;;;2.15;1.27;;;;;;;;;;4944272;28;20038;-83
2023/03/17 12:39:30;;;;;;;2.90;0.90;;;;;;;;;;4940434;29;20179;-84
2023/03/17 12:42:18;;;;;;;1.40;1.10;;;;;;;;;;4929313;28;20043;-83
2023/03/17 12:44:46;;;;;;;3.05;0.90;;;;;;;;;;4947979;28;20105;-83
2023/03/17 12:47:12;;;;;;;0.98;0.95;;;;;;;;;;4946462;28;20042;-82
2023/03/17 12:50:05;;;;;;;1.80;1.02;;;;;;;;;;4930273;29;20039;-82
2023/03/17 12:52:55;;;;;;;1.42;1.17;;;;;;;;;;4946599;28;20034;-82
2023/03/17 12:55:25;;;;;;;2.28;0.98;;;;;;;;;;4936744;29;20038;-82
2023/03/17 12:58:03;;;;;;;1.33;1.13;;;;;;;;;;4953291;28;20031;-84
2023/03/17 13:00:32;;;;;;;1.20;1.10;;;;;;;;;;4953622;28;20031;-83
2023/03/17 13:03:13;;;;;;;1.63;1.13;;;;;;;;;;4939170;29;20035;-77
2023/03/17 13:05:44;;;;;;;1.38;1.10;;;;;;;;;;4960524;29;20030;-81
2023/03/17 13:08:14;;;;;;;2.80;1.02;;;;;;;;;;4960083;28;20035;-84
2023/03/17 13:10:47;;;;;;;1.20;1.10;;;;;;;;;;4945998;28;21427;-83
2023/03/17 13:13:35;;;;;;;1.13;0.95;;;;;;;;;;4943359;28;20027;-84
2023/03/17 13:16:04;;;;;;;3.97;1.35;;;;;;;;;;4943597;28;20058;-85
2023/03/17 13:18:32;;;;;;;2.25;1.30;;;;;;;;;;4938436;29;20027;-84
2023/03/17 13:20:58;;;;;;;1.45;1.00;;;;;;;;;;4937483;28;20043;-84
2023/03/17 13:23:39;;;;;;;2.63;1.63;;;;;;;;;;4955802;28;20069;-81
2023/03/17 13:26:20;;;;;;;2.47;1.27;;;;;;;;;;4946754;28;20069;-84
2023/03/17 13:28:48;;;;;;;4.65;1.50;;;;;;;;;;4934240;29;20035;-83
2023/03/17 13:31:15;;;;;;;2.17;1.20;;;;;;;;;;4932618;29;20039;-81
2023/03/17 13:33:48;;;;;;;3.20;1.25;;;;;;;;;;4951785;28;20040;-83
2023/03/17 13:36:32;;;;;;;4.15;1.15;;;;;;;;;;4924809;29;20414;-83
2023/03/17 13:39:29;;;;;;;4.68;1.30;;;;;;;;;;4953135;29;20103;-81
2023/03/17 13:42:13;;;;;;;1.30;1.05;;;;;;;;;;4953164;28;20041;-83
2023/03/17 13:44:53;;;;;;;4.32;1.30;;;;;;;;;;4932803;29;20035;-83
2023/03/17 13:47:22;;;;;;;1.75;1.20;;;;;;;;;;4950523;29;20039;-82
2023/03/17 13:49:50;;;;;;;3.97;1.20;;;;;;;;;;4935447;29;20508;-82
2023/03/17 13:52:29;;;;;;;6.93;1.50;;;;;;;;;;4937967;29;20024;-81
2023/03/17 13:55:20;;;;;;;4.93;1.05;;;;;;;;;;4958861;28;20031;-83
2023/03/17 13:58:07;;;;;;;10.83;1.70;;;;;;;;;;4942349;29;20069;-81
2023/03/17 14:00:47;;;;;;;2.08;1.30;;;;;;;;;;4930860;29;20042;-82
2023/03/17 14:03:32;;;;;;;2.85;1.52;;;;;;;;;;4945586;29;20023;-82
2023/03/17 14:06:02;;;;;;;2.35;1.10;;;;;;;;;;4949851;28;20122;-85
2023/03/17 14:08:31;;;;;;;3.17;1.75;;;;;;;;;;4950570;29;20042;-83
2023/03/17 14:11:00;;;;;;;5.10;1.50;;;;;;;;;;4934360;28;20035;-81
2023/03/17 14:13:30;;;;;;;1.20;1.08;;;;;;;;;;4953039;29;20035;-80
2023/03/17 14:16:02;;;;;;;2.03;1.20;;;;;;;;;;4939015;29;20042;-80
2023/03/17 14:18:38;;;;;;;3.05;1.17;;;;;;;;;;4934522;28;20228;-81
2023/03/17 14:21:08;;;;;;;5.30;1.50;;;;;;;;;;4949786;28;20046;-82
2023/03/17 14:23:34;;;;;;;1.20;1.10;;;;;;;;;;4943246;28;20035;-81
2023/03/17 14:26:02;;;;;;;1.73;1.15;;;;;;;;;;4950503;28;20090;-82
2023/03/17 14:28:31;;;;;;;1.95;1.38;;;;;;;;;;4943920;28;20031;-80
2023/03/17 14:31:02;;;;;;;4.18;1.63;;;;;;;;;;4935635;29;20039;-81
2023/03/17 14:33:30;;;;;;;3.45;1.02;;;;;;;;;;4953109;29;20027;-80
2023/03/17 14:35:59;;;;;;;1.33;0.95;;;;;;;;;;4935176;29;20035;-81
2023/03/17 14:38:34;;;;;;;9.38;1.30;;;;;;;;;;4935738;29;20066;-81
2023/03/17 14:41:03;;;;;;;3.40;0.93;;;;;;;;;;4953320;29;20078;-80
2023/03/17 14:43:29;;;;;;;3.95;1.63;;;;;;;;;;4952081;28;20064;-82
2023/03/17 14:46:01;;;;;;;2.22;1.30;;;;;;;;;;4933213;29;20035;-81
2023/03/17 14:55:14;;;;;;;2.45;1.50;;;;;;;;;;4952603;28;20081;-80
2023/03/17 14:57:40;;;;;;;2.08;1.40;;;;;;;;;;4955626;29;20027;-80
2023/03/17 15:00:23;;;;;;;2.67;1.70;;;;;;;;;;4953690;28;20049;-81
2023/03/17 15:02:57;;;;;;;3.33;1.10;;;;;;;;;;4952832;28;20042;-80
2023/03/17 15:05:35;;;;;;;1.52;1.10;;;;;;;;;;4938252;29;20027;-81